Mingela Dotswood AWS, Australia

1:39 PM AEST on April 24, 2017 (GMT +1000)
Townsville International | | Change Station

Elev 20 ft 19.25 °S, 146.75 °E | Updated 39 minutes ago

Mostly Cloudy
Mostly Cloudy
82 °F
Feels Like 85 °F
N
17
Wind Variable Wind from ENE

Today
High -- | Low -- °F
--% Chance of Precip.
Yesterday
High -- | Low -- °F
Precip. -- in
Pressure 29.98 in
Visibility 6.2 miles
Clouds Few 3500 ft
Heat Index 85 °F
Dew Point 68 °F
Humidity 62%
Rainfall 0.00 in
Snow Depth Not available.
6:28 AM 5:57 PM
Waning Crescent, 8% visible
METAR YBTL 240300Z 07015KT 9999 FEW035 28/20 Q1015 INTER 0400/0600 5000 SHRA BKN020
Pressure 29.98 in
Visibility 6.2 miles
Clouds Few 3500 ft
Heat Index 85 °F
Dew Point 68 °F
Humidity 62%
Rainfall 0.00 in
Snow Depth Not available.
6:28 AM 5:57 PM
Waning Crescent, 8% visible
METAR YBTL 240300Z 07015KT 9999 FEW035 28/20 Q1015 INTER 0400/0600 5000 SHRA BKN020

Get Severe Weather Alerts

Thanks for signing up!

Be on the lookout for a verification email in your inbox.

You'll start receiving the daily forecast at 8 AM.

×

10-Day Weather Forecast

×

Almanac

Astronomy

Apr. 24, 2017 Rise Set
Actual Time
Civil Twilight
Nautical Twilight
Astronomical Twilight
Moon
Length of Visible Light
Length of Day
Tomorrow will be .
, % of the Moon is Illuminated

Today's Extremes

Country Highs Country Lows

Community

WunderPhotos

WunderBlog® & News

Nearby

Air Quality

  Air Quality AQ Index Pollutant
Not available.

Snow Depth

Station Depth Elevation

Earthquake Activity

City Distance Mag. Time & Date
Minimum magnitude displayed is 2.5.

Coastal Water Temperatures

Place Temperature

Stations

Nearby Weather Stations

Station Location Temp. Windchill Dew Point Humidity Wind Precip. Elev Updated Type